Time;durP1;ratioP1;P1;durP2;ratioP2;P2;SDS_P1;SDS_P2;PMS_P1;PMS_P2;Temp;Humidity;BMP_temperature;BMP_pressure;BME280_temperature;BME280_humidity;BME280_pressure;Samples;Min_cycle;Max_cycle;Signal;HPM_P1;HPM_P2
2022/06/13 00:01:27;;;;;;;11.13;8.13;;;;;;;17.85;87.94;94163.94;4935538;29;20371;-57
2022/06/13 00:03:55;;;;;;;11.18;7.93;;;;;;;17.93;88.75;94167.97;4934751;29;20414;-57
2022/06/13 00:06:21;;;;;;;10.23;8.23;;;;;;;17.98;88.27;94151.94;4934881;29;20062;-58
2022/06/13 00:08:49;;;;;;;10.00;7.57;;;;;;;17.87;88.41;94158.69;4935139;29;20503;-57
2022/06/13 00:11:19;;;;;;;9.07;7.68;;;;;;;17.93;87.83;94161.66;4925012;29;20048;-57
2022/06/13 00:13:49;;;;;;;9.77;7.60;;;;;;;17.95;88.10;94154.41;4906788;29;20044;-57
2022/06/13 00:16:17;;;;;;;10.45;7.90;;;;;;;17.94;87.81;94155.63;4919257;29;20048;-57
2022/06/13 00:18:47;;;;;;;11.13;8.50;;;;;;;17.76;88.75;94170.16;4919597;29;20106;-57
2022/06/13 00:21:29;;;;;;;11.20;8.20;;;;;;;17.98;87.87;94185.25;4921085;29;20056;-57
2022/06/13 00:23:57;;;;;;;11.25;7.70;;;;;;;18.13;87.38;94180.69;4934201;29;20054;-57
2022/06/13 00:26:26;;;;;;;11.30;8.73;;;;;;;17.80;86.98;94177.59;4934562;29;20514;-57
2022/06/13 00:28:53;;;;;;;9.50;7.85;;;;;;;17.55;88.04;94177.34;4908601;29;20044;-57
2022/06/13 00:31:21;;;;;;;9.43;7.32;;;;;;;17.44;87.92;94165.09;4929090;29;20039;-57
2022/06/13 00:33:48;;;;;;;9.63;6.60;;;;;;;17.56;87.29;94172.56;4931008;29;20127;-57
2022/06/13 00:36:16;;;;;;;8.82;7.00;;;;;;;17.68;86.71;94168.13;4934063;29;20047;-57
2022/06/13 00:38:43;;;;;;;9.20;6.85;;;;;;;17.83;86.18;94185.81;4934334;29;20457;-57
2022/06/13 00:41:12;;;;;;;9.13;6.60;;;;;;;17.73;87.67;94207.19;4934126;29;20058;-57
2022/06/13 00:43:41;;;;;;;7.43;5.80;;;;;;;17.71;84.77;94190.22;4933304;29;20529;-57
2022/06/13 00:46:25;;;;;;;7.47;5.00;;;;;;;17.53;85.55;94159.59;4923868;29;20036;-57
2022/06/13 00:48:57;;;;;;;6.95;5.10;;;;;;;17.09;86.76;94162.41;4933258;29;20405;-58
2022/06/13 00:51:24;;;;;;;6.70;4.95;;;;;;;17.22;85.21;94165.13;4934209;29;20035;-57
2022/06/13 00:53:51;;;;;;;6.70;4.80;;;;;;;17.27;85.43;94193.03;4934395;29;20044;-57
2022/06/13 00:56:24;;;;;;;7.93;4.90;;;;;;;17.34;86.24;94211.41;4933558;29;21610;-57
2022/06/13 00:58:57;;;;;;;5.80;4.13;;;;;;;17.24;85.28;94179.31;4933855;29;20350;-57
2022/06/13 01:01:26;;;;;;;5.50;3.90;;;;;;;17.32;85.51;94186.13;4933362;29;20606;-58
2022/06/13 01:03:53;;;;;;;5.60;4.03;;;;;;;17.25;85.05;94184.41;4933601;29;20035;-57
2022/06/13 01:06:21;;;;;;;7.35;4.40;;;;;;;17.20;85.26;94173.13;4933930;29;20054;-57
2022/06/13 01:08:47;;;;;;;6.55;3.90;;;;;;;17.09;84.93;94179.06;4933988;29;20043;-57
2022/06/13 01:11:20;;;;;;;5.63;3.90;;;;;;;17.14;84.32;94170.94;4924926;29;20091;-57
2022/06/13 01:13:59;;;;;;;5.18;3.97;;;;;;;17.02;84.82;94182.06;4921890;29;20036;-57
2022/06/13 01:16:48;;;;;;;5.50;4.18;;;;;;;16.96;85.43;94171.59;4919621;29;20764;-57
2022/06/13 01:19:40;;;;;;;5.07;3.70;;;;;;;17.03;85.43;94167.78;4929547;29;20056;-58
2022/06/13 01:22:31;;;;;;;5.10;3.85;;;;;;;16.83;85.06;94165.31;4926058;29;20048;-57
2022/06/13 01:25:19;;;;;;;5.80;3.67;;;;;;;17.03;84.79;94156.69;4926849;29;20052;-57
2022/06/13 01:28:04;;;;;;;4.65;3.60;;;;;;;17.01;84.82;94145.25;4925666;29;20053;-57
2022/06/13 01:30:53;;;;;;;22.92;16.33;;;;;;;17.12;85.39;94139.31;4907078;29;20665;-57
2022/06/13 01:33:45;;;;;;;8.23;5.53;;;;;;;17.14;85.13;94132.13;4912943;29;20748;-58
2022/06/13 01:36:18;;;;;;;4.95;3.80;;;;;;;17.01;84.92;94142.50;4914166;29;20427;-57
2022/06/13 01:38:58;;;;;;;4.77;3.50;;;;;;;16.98;85.60;94148.94;4914632;29;20147;-57
2022/06/13 01:41:57;;;;;;;6.50;3.75;;;;;;;17.07;84.69;94145.47;4913764;29;20321;-58
2022/06/13 01:44:47;;;;;;;5.85;3.63;;;;;;;17.10;84.16;94156.44;4913387;29;20819;-58
2022/06/13 01:47:33;;;;;;;6.55;4.43;;;;;;;16.70;86.10;94153.47;4909847;29;20044;-57
2022/06/13 01:50:22;;;;;;;7.28;4.38;;;;;;;16.50;88.17;94156.53;4913586;29;20044;-57
2022/06/13 01:53:08;;;;;;;6.40;4.30;;;;;;;16.70;87.57;94153.47;4914364;29;20122;-57
2022/06/13 01:56:01;;;;;;;7.07;4.40;;;;;;;16.81;87.62;94153.09;4913614;29;20470;-57
2022/06/13 01:59:06;;;;;;;39.63;27.58;;;;;;;16.85;87.35;94156.56;4897799;29;21720;-57
2022/06/13 02:01:36;;;;;;;10.30;7.47;;;;;;;16.91;87.38;94161.06;4849212;29;21675;-57
2022/06/13 02:04:38;;;;;;;6.82;4.30;;;;;;;16.96;87.59;94163.25;4919935;29;20040;-57
2022/06/13 02:07:16;;;;;;;7.33;4.70;;;;;;;16.90;88.03;94153.97;4854658;29;20497;-57
2022/06/13 02:09:54;;;;;;;7.07;4.72;;;;;;;16.56;88.94;94138.13;4922880;29;20414;-57
2022/06/13 02:12:24;;;;;;;6.10;4.28;;;;;;;16.36;89.87;94138.41;4914656;29;20410;-58
2022/06/13 02:15:04;;;;;;;7.00;4.53;;;;;;;16.46;89.36;94136.47;4904809;29;20446;-57
2022/06/13 02:17:38;;;;;;;7.72;5.03;;;;;;;16.42;90.60;94133.06;4906909;29;20682;-57
2022/06/13 02:20:12;;;;;;;7.17;4.40;;;;;;;16.63;89.53;94129.56;4921792;29;20054;-57
2022/06/13 02:22:42;;;;;;;6.15;4.50;;;;;;;16.68;89.67;94139.28;4929605;29;20058;-57
2022/06/13 02:25:17;;;;;;;6.70;4.50;;;;;;;16.76;89.72;94140.56;4931999;29;20056;-57
2022/06/13 02:27:50;;;;;;;6.65;4.63;;;;;;;16.77;89.42;94139.38;4929388;29;20044;-57
2022/06/13 02:30:20;;;;;;;7.63;4.95;;;;;;;16.73;89.39;94147.81;4922978;29;20089;-57
2022/06/13 02:32:55;;;;;;;8.00;5.17;;;;;;;16.68;89.58;94150.38;4931207;29;20052;-58
2022/06/13 02:35:27;;;;;;;7.65;5.25;;;;;;;16.60;89.77;94144.31;4931604;29;20653;-57
2022/06/13 02:38:05;;;;;;;7.22;4.82;;;;;;;16.56;90.04;94149.97;4931093;29;20063;-57
2022/06/13 02:40:37;;;;;;;7.50;5.50;;;;;;;16.68;89.37;94153.94;4915884;29;20039;-58
2022/06/13 02:43:17;;;;;;;6.93;5.10;;;;;;;16.64;88.82;94161.59;4930930;29;20051;-57
2022/06/13 02:46:20;;;;;;;7.47;5.30;;;;;;;16.56;88.14;94158.28;4923964;29;20047;-57
2022/06/13 02:49:12;;;;;;;6.25;4.75;;;;;;;16.65;86.57;94148.50;4931688;29;21229;-58
2022/06/13 02:52:06;;;;;;;7.28;5.00;;;;;;;16.59;86.67;94137.22;4931474;29;21776;-57
2022/06/13 02:55:10;;;;;;;7.85;4.88;;;;;;;16.58;85.58;94138.47;4931452;29;21049;-58
2022/06/13 02:58:06;;;;;;;8.10;5.15;;;;;;;16.42;86.16;94139.41;4878912;29;20672;-57
2022/06/13 03:01:14;;;;;;;6.53;4.30;;;;;;;16.40;85.20;94139.06;4895570;29;20376;-58
2022/06/13 03:04:04;;;;;;;6.70;4.32;;;;;;;16.43;84.13;94140.94;4931298;29;20402;-57
2022/06/13 03:06:52;;;;;;;7.38;4.50;;;;;;;16.43;84.86;94142.94;4925502;29;20044;-58
2022/06/13 03:09:31;;;;;;;6.85;4.25;;;;;;;16.30;82.39;94145.75;4926754;29;20453;-57
2022/06/13 03:12:07;;;;;;;7.55;4.03;;;;;;;16.32;81.74;94155.16;4916792;29;20378;-57
2022/06/13 03:14:42;;;;;;;7.07;3.97;;;;;;;16.22;81.82;94147.97;4916288;29;20043;-58
2022/06/13 03:17:22;;;;;;;6.53;4.00;;;;;;;16.16;80.34;94153.31;4919949;29;20058;-57
2022/06/13 03:19:55;;;;;;;6.70;4.00;;;;;;;16.22;79.67;94142.44;4923777;29;20066;-58
2022/06/13 03:22:27;;;;;;;6.95;3.83;;;;;;;16.04;77.39;94147.78;4928250;29;20085;-57
2022/06/13 03:25:18;;;;;;;8.18;3.58;;;;;;;16.05;77.52;94143.78;4935537;29;20058;-56
2022/06/13 03:28:01;;;;;;;6.03;3.50;;;;;;;15.93;76.22;94140.59;4932247;29;20544;-57
2022/06/13 03:30:32;;;;;;;5.38;3.17;;;;;;;15.81;73.20;94146.91;4927623;29;20598;-57
2022/06/13 03:36:34;;;;;;;5.47;3.00;;;;;;;15.60;73.61;94166.94;4894652;29;20056;-57
2022/06/13 03:39:05;;;;;;;5.43;3.20;;;;;;;15.55;73.43;94173.78;4894868;29;20077;-57
2022/06/13 03:41:36;;;;;;;7.10;3.07;;;;;;;15.49;73.37;94164.47;4921016;29;20444;-57
2022/06/13 03:44:26;;;;;;;5.65;3.15;;;;;;;15.43;74.00;94174.53;4934818;29;20521;-57
2022/06/13 03:47:01;;;;;;;8.10;3.40;;;;;;;15.51;74.57;94173.09;4921693;29;20121;-57
2022/06/13 03:49:35;;;;;;;7.13;3.42;;;;;;;15.49;75.07;94175.53;4918397;29;20047;-58
2022/06/13 03:52:06;;;;;;;7.35;3.50;;;;;;;15.50;74.60;94166.81;4934571;29;20051;-57
2022/06/13 03:54:57;;;;;;;7.53;3.53;;;;;;;15.46;74.30;94179.97;4935008;29;20048;-58
2022/06/13 03:57:30;;;;;;;7.13;3.50;;;;;;;15.49;74.18;94187.41;4934277;29;20677;-57
2022/06/13 04:00:03;;;;;;;6.40;3.88;;;;;;;15.37;74.89;94180.63;4934593;29;20051;-57
2022/06/13 04:02:33;;;;;;;5.65;3.40;;;;;;;15.49;75.16;94173.56;4935188;29;20058;-57
2022/06/13 04:05:00;;;;;;;6.43;3.65;;;;;;;15.55;74.82;94171.81;4934650;29;20050;-57
2022/06/13 04:07:32;;;;;;;7.13;4.00;;;;;;;15.54;75.17;94170.25;4935016;29;20063;-57
2022/06/13 04:10:10;;;;;;;6.32;3.50;;;;;;;15.47;75.02;94178.75;4934445;29;20065;-58
2022/06/13 04:12:45;;;;;;;8.52;3.70;;;;;;;15.52;74.69;94169.13;4914813;29;20520;-57
2022/06/13 04:15:20;;;;;;;6.88;3.63;;;;;;;15.50;73.54;94163.28;4918839;29;20100;-57
2022/06/13 04:18:07;;;;;;;6.95;3.67;;;;;;;15.48;73.50;94172.00;4928592;29;20391;-57
2022/06/13 04:20:49;;;;;;;7.20;3.60;;;;;;;15.55;72.61;94179.31;4920085;29;21744;-57
2022/06/13 04:23:45;;;;;;;7.38;3.30;;;;;;;15.54;72.23;94175.78;4922893;29;20048;-57
2022/06/13 04:26:41;;;;;;;6.88;3.15;;;;;;;15.50;71.40;94164.03;4934325;29;20442;-57
2022/06/13 04:29:11;;;;;;;7.00;3.33;;;;;;;16.07;70.04;94157.97;4920720;29;20051;-58
2022/06/13 04:31:40;;;;;;;8.20;3.40;;;;;;;16.52;68.47;94163.19;4935067;29;20054;-58
2022/06/13 04:34:21;;;;;;;6.67;3.23;;;;;;;16.16;70.37;94166.38;4932248;29;20035;-58
2022/06/13 04:36:51;;;;;;;6.88;3.40;;;;;;;16.08;71.81;94173.38;4934476;29;20040;-58
2022/06/13 04:39:24;;;;;;;6.13;3.30;;;;;;;16.86;69.47;94180.25;4933734;29;20043;-58
2022/06/13 04:41:55;;;;;;;6.40;3.30;;;;;;;16.92;68.21;94181.22;4933983;29;20211;-58
2022/06/13 04:44:26;;;;;;;6.30;3.15;;;;;;;16.94;67.73;94170.47;4934105;29;20121;-58
2022/06/13 04:46:55;;;;;;;5.57;3.20;;;;;;;17.05;66.77;94184.72;4921452;29;20513;-57
2022/06/13 04:49:26;;;;;;;6.28;3.17;;;;;;;17.10;66.97;94177.81;4934384;29;20355;-58
2022/06/13 04:51:55;;;;;;;27.10;16.88;;;;;;;17.26;66.05;94174.84;4933830;29;20119;-58
2022/06/13 04:54:39;;;;;;;6.78;3.80;;;;;;;17.30;65.06;94171.94;4923394;29;20044;-58
2022/06/13 04:57:06;;;;;;;4.88;3.00;;;;;;;17.17;64.33;94169.25;4933262;29;20051;-58
2022/06/13 04:59:33;;;;;;;6.87;2.90;;;;;;;17.23;63.81;94181.31;4933877;29;20122;-58
2022/06/13 05:02:02;;;;;;;5.53;2.72;;;;;;;17.36;63.23;94184.78;4929315;29;20054;-58
2022/06/13 05:04:30;;;;;;;6.38;3.00;;;;;;;17.46;63.30;94187.59;4924023;29;20040;-58
2022/06/13 05:07:06;;;;;;;5.07;2.90;;;;;;;17.46;63.27;94185.59;4933422;29;20047;-58
2022/06/13 05:09:40;;;;;;;5.80;2.80;;;;;;;17.75;61.95;94188.06;4933956;29;20159;-58
2022/06/13 05:12:20;;;;;;;6.33;2.87;;;;;;;18.32;60.92;94184.28;4933477;29;20055;-58
2022/06/13 05:14:56;;;;;;;6.15;2.63;;;;;;;18.03;61.64;94182.66;4932674;29;20454;-58
2022/06/13 05:17:44;;;;;;;6.65;2.90;;;;;;;18.03;61.52;94182.66;4932990;29;20054;-58
2022/06/13 05:20:32;;;;;;;6.82;2.90;;;;;;;17.85;62.02;94177.81;4920267;29;20048;-58
2022/06/13 05:23:17;;;;;;;7.00;3.45;;;;;;;17.70;62.71;94180.31;4928713;29;20048;-58
2022/06/13 05:25:47;;;;;;;7.90;3.00;;;;;;;20.19;56.00;94182.41;4930369;29;20062;-58
2022/06/13 05:28:20;;;;;;;6.57;3.20;;;;;;;18.65;58.20;94178.16;4933151;29;20050;-58
2022/06/13 05:30:50;;;;;;;5.30;3.10;;;;;;;19.99;54.91;94177.38;4933541;29;20401;-58
2022/06/13 05:33:21;;;;;;;6.68;3.05;;;;;;;21.26;51.69;94176.25;4926513;29;21713;-58
2022/06/13 05:35:52;;;;;;;5.68;2.60;;;;;;;22.81;47.52;94174.16;4926921;29;20043;-59
2022/06/13 05:38:31;;;;;;;5.53;2.97;;;;;;;22.97;47.21;94175.63;4932545;29;20095;-59
2022/06/13 05:40:58;;;;;;;5.25;2.55;;;;;;;23.80;45.12;94179.84;4932892;29;20147;-58
2022/06/13 05:43:25;;;;;;;5.55;3.00;;;;;;;25.57;41.26;94175.47;4933186;29;20039;-59
2022/06/13 05:45:52;;;;;;;5.20;2.70;;;;;;;26.03;40.41;94187.56;4931538;29;20043;-59
2022/06/13 05:48:22;;;;;;;4.60;2.70;;;;;;;25.91;40.40;94187.56;4933194;29;20043;-59
2022/06/13 05:50:49;;;;;;;4.70;2.60;;;;;;;26.51;39.20;94187.28;4931832;29;20066;-59
2022/06/13 05:53:22;;;;;;;4.72;2.90;;;;;;;26.45;38.76;94191.41;4932203;29;20056;-59
2022/06/13 05:55:51;;;;;;;5.25;3.10;;;;;;;26.66;38.33;94194.69;4932995;29;20055;-59
2022/06/13 05:58:21;;;;;;;6.00;3.20;;;;;;;27.04;37.87;94192.28;4932275;29;20069;-59
2022/06/13 06:00:52;;;;;;;4.60;2.72;;;;;;;27.39;36.49;94194.50;4933174;29;20050;-59
2022/06/13 06:03:19;;;;;;;5.13;3.10;;;;;;;27.05;37.98;94197.41;4932152;29;20571;-59
2022/06/13 06:05:46;;;;;;;5.75;3.20;;;;;;;28.08;35.85;94201.28;4932502;29;20050;-59
2022/06/13 06:08:18;;;;;;;6.38;2.95;;;;;;;29.99;32.22;94204.09;4932432;29;20483;-59
2022/06/13 06:10:46;;;;;;;5.38;2.78;;;;;;;31.41;30.48;94199.59;4907662;29;20052;-60
2022/06/13 06:13:14;;;;;;;4.78;2.60;;;;;;;31.68;29.24;94203.19;4909140;29;20045;-59
2022/06/13 06:15:42;;;;;;;6.93;2.60;;;;;;;30.73;30.21;94197.28;4896608;29;20062;-60
2022/06/13 06:18:09;;;;;;;5.15;2.65;;;;;;;31.80;28.86;94200.88;4913099;29;20114;-60
2022/06/13 06:20:36;;;;;;;5.90;2.70;;;;;;;32.81;27.17;94201.31;4921397;29;20078;-59
2022/06/13 06:23:04;;;;;;;5.68;2.42;;;;;;;32.70;26.84;94203.69;4923089;29;20370;-59
2022/06/13 06:25:32;;;;;;;4.93;2.90;;;;;;;32.52;27.56;94205.38;4932149;29;20118;-59
2022/06/13 06:27:59;;;;;;;6.00;3.30;;;;;;;29.89;31.03;94205.78;4932231;29;20078;-59
2022/06/13 06:30:27;;;;;;;5.80;2.72;;;;;;;31.10;29.38;94216.19;4918948;29;20040;-60
2022/06/13 06:32:55;;;;;;;5.10;2.90;;;;;;;30.12;31.31;94219.59;4929074;29;20052;-59
2022/06/13 06:35:24;;;;;;;5.28;2.92;;;;;;;30.53;30.39;94227.75;4926650;29;20050;-59
2022/06/13 06:37:53;;;;;;;5.57;3.00;;;;;;;27.47;35.27;94220.84;4932397;29;20387;-59
2022/06/13 06:40:23;;;;;;;5.43;3.20;;;;;;;27.97;34.65;94230.34;4931592;29;20574;-59
2022/06/13 06:42:50;;;;;;;4.70;2.70;;;;;;;30.40;31.49;94236.19;4919305;29;20078;-59
2022/06/13 06:45:26;;;;;;;5.88;3.20;;;;;;;32.13;28.25;94224.16;4931421;29;20632;-59
2022/06/13 06:47:53;;;;;;;7.35;3.08;;;;;;;27.48;35.88;94236.47;4917066;29;20478;-59
2022/06/13 06:50:24;;;;;;;6.53;3.20;;;;;;;28.11;34.37;94228.44;4930991;29;20040;-60
2022/06/13 06:52:51;;;;;;;5.77;3.40;;;;;;;25.20;40.47;94240.22;4932221;29;20102;-59
2022/06/13 07:00:59;;;;;;;6.40;3.85;;;;;;;25.94;41.36;94238.44;4931770;29;20117;-59
2022/06/13 07:03:26;;;;;;;6.63;3.60;;;;;;;24.64;43.61;94238.63;4932272;29;20036;-59
2022/06/13 07:05:53;;;;;;;7.93;3.40;;;;;;;24.68;43.35;94241.97;4930304;29;20168;-59
2022/06/13 07:08:20;;;;;;;6.50;3.67;;;;;;;24.66;43.82;94250.13;4931837;29;20649;-59
2022/06/13 07:10:49;;;;;;;6.95;4.00;;;;;;;26.00;40.20;94234.38;4931982;29;20043;-59
2022/06/13 07:13:19;;;;;;;5.78;3.33;;;;;;;24.81;42.69;94247.19;4931697;29;20047;-59
2022/06/13 07:15:48;;;;;;;6.82;3.53;;;;;;;25.77;41.47;94250.38;4915597;29;20066;-59
2022/06/13 07:18:16;;;;;;;10.03;4.03;;;;;;;26.23;40.75;94235.13;4930062;29;20055;-59
2022/06/13 07:20:44;;;;;;;8.75;4.10;;;;;;;23.07;46.65;94249.06;4923228;29;20048;-59
2022/06/13 07:23:11;;;;;;;6.90;3.33;;;;;;;27.30;38.72;94242.69;4912680;29;20424;-59
2022/06/13 07:25:37;;;;;;;6.68;3.50;;;;;;;27.24;37.89;94241.94;4916362;29;20054;-59
2022/06/13 07:28:04;;;;;;;5.68;3.15;;;;;;;27.81;36.53;94243.22;4912520;29;20403;-59
2022/06/13 07:30:31;;;;;;;5.40;3.07;;;;;;;27.45;36.09;94253.66;4913245;29;20040;-59
2022/06/13 07:32:58;;;;;;;7.00;2.88;;;;;;;28.38;34.94;94262.63;4926719;29;20052;-60
2022/06/13 07:35:26;;;;;;;6.30;2.90;;;;;;;32.54;29.38;94260.34;4921631;29;20055;-59
2022/06/13 07:40:40;;;;;;;5.65;2.90;;;;;;;29.84;30.48;94275.31;4924289;29;20062;-60
2022/06/13 07:43:11;;;;;;;5.80;2.73;;;;;;;30.23;30.38;94271.16;4931585;29;20071;-60
2022/06/13 07:45:40;;;;;;;6.30;2.60;;;;;;;30.89;28.68;94258.56;4922111;29;20139;-60
2022/06/13 07:48:22;;;;;;;6.13;2.75;;;;;;;30.12;29.11;94273.38;4928083;29;20583;-59
2022/06/13 07:50:49;;;;;;;4.60;2.50;;;;;;;29.91;30.39;94276.00;4930765;29;20709;-59
2022/06/13 07:53:16;;;;;;;6.38;2.50;;;;;;;30.26;28.39;94278.59;4918144;29;20040;-59
2022/06/13 07:56:04;;;;;;;6.93;2.50;;;;;;;27.73;32.24;94275.28;4919827;29;20047;-59
2022/06/13 07:58:34;;;;;;;5.47;2.42;;;;;;;27.13;33.52;94287.03;4928162;29;20510;-59
2022/06/13 08:01:01;;;;;;;5.32;2.50;;;;;;;27.65;33.10;94292.78;4931266;29;20051;-59
2022/06/13 08:03:30;;;;;;;6.78;2.30;;;;;;;25.37;35.11;94302.88;4931741;29;20043;-59
2022/06/13 08:05:58;;;;;;;4.70;2.15;;;;;;;26.73;33.23;94309.63;4917560;29;20047;-58
2022/06/13 08:08:25;;;;;;;4.77;2.33;;;;;;;27.80;32.08;94298.09;4932591;29;20044;-59
2022/06/13 08:10:54;;;;;;;5.38;3.40;;;;;;;28.00;31.10;94296.22;4934469;29;20051;-58
2022/06/13 08:13:23;;;;;;;6.13;2.30;;;;;;;29.39;28.87;94292.03;4935068;29;20047;-59
2022/06/13 08:15:50;;;;;;;5.45;2.53;;;;;;;28.93;29.77;94294.50;4934281;29;20482;-59
2022/06/13 08:18:19;;;;;;;6.40;2.70;;;;;;;28.53;30.24;94302.56;4933911;29;20724;-59
2022/06/13 08:20:49;;;;;;;8.23;3.00;;;;;;;30.71;26.58;94299.81;4928039;29;20048;-59
2022/06/13 08:23:21;;;;;;;5.75;2.35;;;;;;;28.09;29.11;94310.78;4911065;29;20041;-59
2022/06/13 08:25:49;;;;;;;6.80;2.80;;;;;;;28.94;28.34;94300.97;4919162;29;20358;-60
2022/06/13 08:28:17;;;;;;;6.57;2.60;;;;;;;25.61;32.10;94315.75;4931000;29;20048;-59
2022/06/13 08:30:50;;;;;;;6.18;2.58;;;;;;;28.43;28.36;94307.75;4921329;29;20040;-59
2022/06/13 08:33:17;;;;;;;5.93;2.40;;;;;;;27.79;29.12;94307.06;4928415;29;20044;-59
2022/06/13 08:35:44;;;;;;;4.40;2.20;;;;;;;30.61;25.53;94318.50;4929527;29;20062;-58
2022/06/13 08:38:12;;;;;;;5.32;2.67;;;;;;;29.87;25.78;94310.25;4927702;29;20052;-58
2022/06/13 08:40:51;;;;;;;7.00;2.92;;;;;;;29.57;25.32;94316.00;4915734;29;20048;-58
2022/06/13 08:43:44;;;;;;;5.13;2.55;;;;;;;30.24;26.01;94314.38;4933245;29;20044;-58
2022/06/13 08:46:29;;;;;;;7.60;2.60;;;;;;;26.26;31.09;94315.72;4933974;29;20051;-58
2022/06/13 08:49:09;;;;;;;5.65;2.40;;;;;;;28.67;28.34;94317.59;4934015;29;20495;-59
2022/06/13 08:51:48;;;;;;;5.30;2.30;;;;;;;31.06;24.89;94317.78;4934656;29;20043;-59
2022/06/13 08:54:35;;;;;;;4.95;2.10;;;;;;;30.84;23.58;94325.31;4934034;29;20035;-60
2022/06/13 08:57:09;;;;;;;5.85;2.35;;;;;;;30.11;24.23;94326.41;4894993;29;20157;-59
2022/06/13 09:00:03;;;;;;;6.43;2.40;;;;;;;30.64;24.43;94332.34;4934336;29;20371;-59
2022/06/13 09:02:47;;;;;;;6.35;2.60;;;;;;;27.36;28.62;94327.22;4933158;29;20575;-59
2022/06/13 09:05:20;;;;;;;7.45;2.60;;;;;;;28.25;26.42;94328.91;4933637;29;20141;-59
2022/06/13 09:08:11;;;;;;;6.65;5.15;;;;;;;27.25;27.04;94328.03;4934045;29;20044;-59
2022/06/13 09:10:52;;;;;;;7.40;2.45;;;;;;;30.45;23.58;94334.47;4932877;29;20680;-59
2022/06/13 09:13:30;;;;;;;5.47;1.93;;;;;;;32.45;22.21;94326.16;4932062;29;20047;-59
2022/06/13 09:16:13;;;;;;;5.40;1.98;;;;;;;33.17;21.66;94322.94;4933610;29;20048;-59
2022/06/13 09:18:52;;;;;;;4.85;1.90;;;;;;;33.33;20.95;94329.50;4934080;29;20063;-59
2022/06/13 09:21:29;;;;;;;5.35;2.00;;;;;;;32.23;21.47;94333.84;4903345;29;20754;-59
2022/06/13 09:24:24;;;;;;;4.53;2.10;;;;;;;33.08;21.88;94325.47;4914696;29;20040;-59
2022/06/13 09:27:19;;;;;;;5.40;2.40;;;;;;;29.22;24.28;94340.28;4909148;29;20040;-59
2022/06/13 09:30:09;;;;;;;6.43;2.20;;;;;;;29.82;25.19;94351.47;4924428;29;20407;-59
2022/06/13 09:32:49;;;;;;;6.32;2.40;;;;;;;31.93;22.67;94334.22;4931056;29;20753;-59
2022/06/13 09:35:22;;;;;;;6.63;2.33;;;;;;;28.79;26.23;94341.63;4926149;29;20048;-59
2022/06/13 09:37:56;;;;;;;7.38;2.30;;;;;;;30.92;24.61;94358.75;4911914;29;20040;-59
2022/06/13 09:40:47;;;;;;;4.30;2.20;;;;;;;28.88;25.73;94351.84;4925906;29;20054;-59
2022/06/13 09:43:19;;;;;;;5.70;2.20;;;;;;;28.83;25.95;94352.66;4933210;29;20055;-59
2022/06/13 09:45:51;;;;;;;6.43;2.10;;;;;;;32.73;21.89;94345.44;4933484;29;20035;-59
2022/06/13 09:48:45;;;;;;;5.40;2.40;;;;;;;27.53;27.27;94358.94;4932587;29;20773;-59
2022/06/13 09:51:18;;;;;;;5.13;2.35;;;;;;;30.73;23.59;94359.53;4932517;29;20154;-59
2022/06/13 09:54:09;;;;;;;6.07;2.10;;;;;;;30.33;24.13;94353.66;4933343;29;20434;-59
2022/06/13 09:56:43;;;;;;;4.50;1.98;;;;;;;31.87;21.94;94350.59;4913831;29;20542;-59
2022/06/13 09:59:13;;;;;;;4.95;2.30;;;;;;;32.17;21.88;94350.25;4925730;29;20044;-59
2022/06/13 10:02:04;;;;;;;5.47;2.25;;;;;;;30.57;22.92;94343.56;4932701;29;20047;-59
2022/06/13 10:04:50;;;;;;;7.50;2.58;;;;;;;26.78;28.49;94350.31;4932233;29;20085;-59
2022/06/13 10:07:25;;;;;;;5.47;2.10;;;;;;;28.71;26.54;94351.22;4932130;29;20043;-59
2022/06/13 10:10:10;;;;;;;7.85;2.25;;;;;;;29.43;25.41;94355.47;4916574;29;20052;-57
2022/06/13 10:12:50;;;;;;;6.22;2.25;;;;;;;29.80;25.58;94348.41;4933049;29;20406;-59
2022/06/13 10:15:51;;;;;;;5.22;2.20;;;;;;;30.83;24.04;94354.22;4915396;29;20050;-59
2022/06/13 10:18:57;;;;;;;5.65;2.13;;;;;;;28.88;25.27;94346.19;4929287;29;20148;-59
2022/06/13 10:21:32;;;;;;;4.80;1.93;;;;;;;30.21;23.77;94344.53;4931940;29;20446;-59
2022/06/13 10:24:41;;;;;;;4.35;1.83;;;;;;;28.67;24.43;94343.00;4930594;29;20051;-59
2022/06/13 10:27:21;;;;;;;3.88;1.60;;;;;;;30.15;22.05;94345.91;4931931;29;20060;-59
2022/06/13 10:30:00;;;;;;;5.32;2.05;;;;;;;29.68;22.50;94350.56;4923058;29;20127;-59
2022/06/13 10:32:56;;;;;;;6.05;2.28;;;;;;;29.85;23.71;94350.41;4926577;29;20367;-59
2022/06/13 10:35:26;;;;;;;6.03;2.03;;;;;;;31.20;22.53;94350.53;4917103;29;22503;-59
2022/06/13 10:37:58;;;;;;;4.15;1.75;;;;;;;31.18;21.32;94361.66;4931943;29;20046;-58
2022/06/13 10:40:25;;;;;;;3.60;2.00;;;;;;;30.21;22.78;94349.44;4932711;29;20495;-59
2022/06/13 10:42:53;;;;;;;4.82;1.85;;;;;;;30.44;22.33;94333.66;4931863;29;20066;-59
2022/06/13 10:45:22;;;;;;;5.68;2.10;;;;;;;28.51;23.76;94332.63;4932293;29;20044;-58
2022/06/13 10:48:05;;;;;;;3.83;1.70;;;;;;;26.83;25.63;94341.09;4932664;29;20046;-59
2022/06/13 10:50:37;;;;;;;5.07;1.90;;;;;;;24.74;27.43;94347.91;4913251;29;20610;-58
2022/06/13 10:53:11;;;;;;;3.72;1.80;;;;;;;24.37;28.82;94337.34;4904126;29;20486;-58
2022/06/13 10:55:41;;;;;;;3.95;1.67;;;;;;;23.91;27.41;94334.09;4923613;29;20044;-58
2022/06/13 10:58:16;;;;;;;5.97;1.60;;;;;;;24.47;27.87;94341.53;4921982;29;20052;-58
2022/06/13 11:01:07;;;;;;;3.97;1.60;;;;;;;24.82;26.86;94349.00;4928321;29;20044;-58
2022/06/13 11:03:34;;;;;;;2.67;1.40;;;;;;;24.88;25.66;94344.94;4931346;29;21702;-58
2022/06/13 11:06:04;;;;;;;4.88;1.77;;;;;;;24.66;26.62;94342.75;4927218;29;20044;-57
2022/06/13 11:08:33;;;;;;;4.13;1.85;;;;;;;23.98;27.87;94329.31;4923818;29;20065;-57
2022/06/13 11:11:13;;;;;;;4.47;1.77;;;;;;;23.98;27.75;94337.75;4931902;29;20138;-57
2022/06/13 11:13:43;;;;;;;6.40;1.60;;;;;;;24.25;28.26;94333.69;4932368;29;20510;-57
2022/06/13 11:24:58;;;;;;;5.95;2.00;;;;;;;23.56;28.99;94327.81;4918183;29;20044;-57
2022/06/13 11:27:41;;;;;;;4.80;1.70;;;;;;;23.45;28.76;94329.22;4931244;29;20051;-59
2022/06/13 11:30:18;;;;;;;4.57;1.60;;;;;;;24.21;28.22;94331.09;4931553;29;20058;-59
2022/06/13 11:33:02;;;;;;;4.05;1.55;;;;;;;24.01;29.39;94329.13;4930261;29;20035;-59
2022/06/13 11:35:39;;;;;;;4.97;1.70;;;;;;;23.22;28.27;94336.56;4926986;29;20683;-59
2022/06/13 11:38:33;;;;;;;4.10;1.60;;;;;;;23.81;28.15;94334.75;4931698;29;20047;-59
2022/06/13 11:41:14;;;;;;;3.37;1.50;;;;;;;24.06;27.97;94339.59;4931425;29;20039;-59
2022/06/13 11:44:03;;;;;;;4.03;1.55;;;;;;;24.17;27.39;94335.41;4933462;29;20043;-59
2022/06/13 11:47:06;;;;;;;4.47;1.33;;;;;;;24.29;27.34;94337.81;4935067;29;20044;-59
2022/06/13 11:49:39;;;;;;;3.55;1.40;;;;;;;24.22;28.07;94335.44;4826055;29;20080;-59
2022/06/13 11:52:11;;;;;;;3.17;1.40;;;;;;;23.99;27.47;94333.69;4895255;29;20074;-59
2022/06/13 11:54:47;;;;;;;3.30;1.40;;;;;;;24.02;27.17;94325.03;4919899;29;20044;-59
2022/06/13 11:57:19;;;;;;;4.68;1.27;;;;;;;24.42;27.08;94325.41;4922915;29;20378;-59
2022/06/13 11:59:54;;;;;;;3.53;1.50;;;;;;;23.40;27.60;94327.13;4921849;29;20040;-57
2022/06/13 12:02:23;;;;;;;3.05;1.50;;;;;;;23.49;26.70;94326.22;4934785;29;20044;-57
2022/06/13 12:04:55;;;;;;;3.25;1.40;;;;;;;24.01;28.12;94336.75;4935347;29;20131;-57
2022/06/13 12:07:28;;;;;;;4.17;1.40;;;;;;;24.02;27.11;94319.44;4921394;29;21921;-57
2022/06/13 12:09:59;;;;;;;4.00;1.60;;;;;;;24.03;28.94;94320.22;4920458;29;20046;-57
2022/06/13 12:12:42;;;;;;;3.13;1.40;;;;;;;24.30;25.80;94322.50;4934872;29;20043;-58
2022/06/13 12:15:11;;;;;;;3.90;1.40;;;;;;;24.33;25.11;94327.13;4934505;29;20048;-58
2022/06/13 12:17:41;;;;;;;4.13;1.27;;;;;;;23.37;25.17;94316.88;4935157;29;20044;-58
2022/06/13 12:20:21;;;;;;;3.30;1.23;;;;;;;23.70;25.75;94321.34;4934537;29;20036;-58
2022/06/13 12:23:10;;;;;;;2.83;1.30;;;;;;;23.76;26.18;94301.78;4934901;29;20048;-58
2022/06/13 12:25:56;;;;;;;4.57;1.33;;;;;;;23.67;24.82;94300.69;4913621;29;20652;-58
2022/06/13 12:28:29;;;;;;;3.65;1.20;;;;;;;23.88;24.73;94312.66;4934100;29;20117;-58
2022/06/13 12:31:01;;;;;;;2.95;1.30;;;;;;;23.50;24.41;94314.50;4933318;29;20050;-57
2022/06/13 12:33:38;;;;;;;3.37;1.20;;;;;;;24.06;25.45;94305.97;4928128;29;20380;-57
2022/06/13 12:36:12;;;;;;;3.25;1.23;;;;;;;24.04;26.10;94311.28;4934244;29;20050;-58